createdAt,value
2018-06-22T00:02:05.311Z,10.90
2018-06-22T00:04:33.445Z,10.80
2018-06-22T00:07:01.552Z,10.80
2018-06-22T00:09:29.775Z,10.80
2018-06-22T00:11:57.927Z,10.70
2018-06-22T00:14:26.052Z,10.60
2018-06-22T00:16:54.179Z,10.50
2018-06-22T00:19:22.368Z,10.50
2018-06-22T00:21:50.481Z,10.40
2018-06-22T00:24:19.730Z,10.30
2018-06-22T00:26:47.829Z,10.20
2018-06-22T00:29:15.943Z,10.20
2018-06-22T00:31:44.060Z,10.20
2018-06-22T00:34:12.185Z,10.00
2018-06-22T00:36:40.298Z,10.00
2018-06-22T00:39:09.415Z,10.00
2018-06-22T00:41:37.638Z,9.90
2018-06-22T00:44:05.794Z,9.90
2018-06-22T00:46:33.924Z,9.80
2018-06-22T00:49:02.064Z,9.80
2018-06-22T00:51:30.166Z,9.70
2018-06-22T00:54:10.094Z,9.70
2018-06-22T00:56:38.256Z,9.60
2018-06-22T00:59:06.374Z,9.50
2018-06-22T01:01:34.505Z,9.40
2018-06-22T01:04:02.607Z,9.40
2018-06-22T01:06:30.721Z,9.40
2018-06-22T01:08:58.845Z,9.30
2018-06-22T01:11:26.988Z,9.30
2018-06-22T01:13:55.163Z,9.20
2018-06-22T01:16:23.318Z,9.10
2018-06-22T01:18:51.512Z,9.10
2018-06-22T01:21:19.637Z,9.10
2018-06-22T01:23:47.901Z,9.00
2018-06-22T01:26:16.046Z,9.10
2018-06-22T01:28:44.202Z,9.10
2018-06-22T01:31:12.342Z,9.20
2018-06-22T01:33:40.502Z,9.20
2018-06-22T01:36:08.670Z,9.20
2018-06-22T01:38:36.918Z,9.20
2018-06-22T01:41:05.097Z,9.20
2018-06-22T01:43:33.266Z,9.10
2018-06-22T01:46:01.403Z,9.00
2018-06-22T01:48:30.378Z,9.00
2018-06-22T01:50:58.534Z,8.90
2018-06-22T01:53:26.642Z,8.90
2018-06-22T01:58:22.686Z,8.80
2018-06-22T02:00:50.825Z,8.80
2018-06-22T02:03:19.071Z,8.80
2018-06-22T02:05:49.216Z,8.80
2018-06-22T02:08:19.255Z,8.80
2018-06-22T02:10:49.950Z,8.70
2018-06-22T02:13:20.410Z,8.60
2018-06-22T02:15:50.600Z,8.50
2018-06-22T02:18:20.783Z,8.40
2018-06-22T02:20:50.690Z,8.40
2018-06-22T02:23:20.771Z,8.30
2018-06-22T02:25:49.995Z,8.30
2018-06-22T02:28:20.275Z,8.30
2018-06-22T02:30:50.356Z,8.40
2018-06-22T02:33:20.091Z,8.40
2018-06-22T02:35:50.042Z,8.50
2018-06-22T02:38:19.033Z,8.40
2018-06-22T02:40:47.616Z,8.40
2018-06-22T02:43:17.286Z,8.40
2018-06-22T02:45:46.043Z,8.30
2018-06-22T02:48:15.986Z,8.20
2018-06-22T02:50:44.926Z,8.10
2018-06-22T02:53:15.051Z,8.00
2018-06-22T02:55:44.025Z,7.90
2018-06-22T02:58:12.648Z,7.80
2018-06-22T03:00:42.367Z,7.80
2018-06-22T03:03:11.058Z,7.80
2018-06-22T03:05:39.867Z,7.70
2018-06-22T03:08:08.122Z,7.70
2018-06-22T03:10:36.295Z,7.60
2018-06-22T03:13:04.457Z,7.50
2018-06-22T03:15:32.582Z,7.50
2018-06-22T03:18:00.734Z,7.50
2018-06-22T03:20:28.954Z,7.50
2018-06-22T03:22:57.094Z,7.40
2018-06-22T03:25:25.270Z,7.50
2018-06-22T03:27:53.402Z,7.40
2018-06-22T03:30:21.765Z,7.40
2018-06-22T03:32:49.875Z,7.40
2018-06-22T03:35:18.001Z,7.40
2018-06-22T03:37:46.123Z,7.30
2018-06-22T03:40:14.247Z,7.30
2018-06-22T03:42:42.527Z,7.30
2018-06-22T03:45:10.920Z,7.30
2018-06-22T03:47:41.334Z,7.30
2018-06-22T03:50:10.084Z,7.30
2018-06-22T03:52:39.387Z,7.30
2018-06-22T03:55:08.262Z,7.30
2018-06-22T03:57:38.739Z,7.30
2018-06-22T04:00:07.600Z,7.30
2018-06-22T04:02:36.109Z,7.30
2018-06-22T04:05:04.222Z,7.40
2018-06-22T04:07:35.476Z,7.40
2018-06-22T04:10:03.606Z,7.50
2018-06-22T04:12:38.219Z,7.50
2018-06-22T04:15:06.335Z,7.60
2018-06-22T04:17:38.790Z,7.60
2018-06-22T04:20:06.958Z,7.70
2018-06-22T04:22:36.090Z,7.70
2018-06-22T04:25:04.235Z,7.80
2018-06-22T04:27:32.362Z,7.90
2018-06-22T04:30:00.518Z,7.90
2018-06-22T04:32:28.650Z,8.00
2018-06-22T04:34:56.857Z,8.10
2018-06-22T04:37:24.978Z,8.20
2018-06-22T04:39:53.094Z,8.30
2018-06-22T04:42:21.260Z,8.40
2018-06-22T04:44:49.412Z,8.40
2018-06-22T04:47:17.506Z,8.50
2018-06-22T04:49:45.653Z,8.60
2018-06-22T04:52:13.822Z,8.70
2018-06-22T04:54:43.338Z,8.80
2018-06-22T04:57:11.466Z,8.90
2018-06-22T04:59:39.614Z,9.00
2018-06-22T05:02:07.742Z,9.10
2018-06-22T05:04:35.870Z,9.30
2018-06-22T05:07:03.994Z,9.30
2018-06-22T05:09:32.114Z,9.40
2018-06-22T05:12:00.294Z,9.50
2018-06-22T05:14:28.518Z,9.60
2018-06-22T05:16:56.630Z,9.70
2018-06-22T05:19:24.819Z,9.90
2018-06-22T05:21:52.967Z,10.10
2018-06-22T05:24:21.082Z,10.30
2018-06-22T05:26:49.299Z,10.40
2018-06-22T05:29:17.442Z,10.60
2018-06-22T05:31:45.546Z,10.70
2018-06-22T05:34:13.661Z,10.80
2018-06-22T05:36:41.788Z,10.90
2018-06-22T05:39:11.026Z,11.00
2018-06-22T05:41:39.522Z,11.10
2018-06-22T05:44:08.113Z,11.20
2018-06-22T05:46:36.279Z,11.30
2018-06-22T05:49:04.502Z,11.40
2018-06-22T05:51:32.614Z,11.50
2018-06-22T05:54:00.726Z,11.60
2018-06-22T05:56:28.902Z,11.70
2018-06-22T05:58:57.504Z,11.80
2018-06-22T06:03:53.518Z,12.00
2018-06-22T06:06:21.627Z,12.00
2018-06-22T06:08:49.739Z,12.10
2018-06-22T06:11:17.996Z,12.20
2018-06-22T06:13:45.975Z,12.30
2018-06-22T06:16:14.106Z,12.40
2018-06-22T06:18:42.260Z,12.50
2018-06-22T06:21:10.375Z,12.60
2018-06-22T06:23:38.521Z,12.70
2018-06-22T06:28:34.607Z,12.80
2018-06-22T06:31:02.719Z,12.80
2018-06-22T06:33:32.894Z,12.80
2018-06-22T06:36:01.029Z,12.90
2018-06-22T06:38:29.143Z,13.20
2018-06-22T06:40:57.290Z,13.50
2018-06-22T06:43:25.396Z,13.80
2018-06-22T06:45:53.543Z,14.10
2018-06-22T06:48:21.665Z,13.90
2018-06-22T06:50:49.810Z,14.00
2018-06-22T06:53:20.018Z,14.40
2018-06-22T06:55:48.138Z,15.10
2018-06-22T06:58:16.290Z,15.30
2018-06-22T07:00:44.418Z,15.30
2018-06-22T07:03:12.549Z,15.20
2018-06-22T07:05:40.669Z,15.30
2018-06-22T07:08:08.853Z,15.70
2018-06-22T07:10:36.947Z,16.50
2018-06-22T07:13:05.090Z,17.40
2018-06-22T07:15:38.986Z,18.30
2018-06-22T07:18:07.771Z,18.90
2018-06-22T07:20:35.947Z,19.50
2018-06-22T07:23:04.081Z,19.60
2018-06-22T07:25:32.202Z,19.50
2018-06-22T07:28:00.453Z,19.70
2018-06-22T07:30:28.669Z,19.90
2018-06-22T07:32:56.883Z,19.90
2018-06-22T07:35:25.113Z,19.90
2018-06-22T07:37:53.245Z,19.60
2018-06-22T07:40:21.453Z,19.50
2018-06-22T07:42:49.562Z,19.60
2018-06-22T07:45:17.729Z,19.80
2018-06-22T07:47:45.916Z,19.80
2018-06-22T07:50:14.124Z,19.90
2018-06-22T07:52:42.234Z,20.20
2018-06-22T07:55:10.466Z,20.10
2018-06-22T07:57:38.521Z,19.50
2018-06-22T08:00:06.678Z,19.30
2018-06-22T08:02:34.881Z,19.00
2018-06-22T08:05:03.020Z,18.50
2018-06-22T08:07:31.130Z,18.00
2018-06-22T08:09:59.273Z,17.80
2018-06-22T08:12:27.471Z,17.80
2018-06-22T08:14:55.609Z,17.70
2018-06-22T08:17:23.722Z,17.70
2018-06-22T08:19:51.842Z,17.90
2018-06-22T08:22:19.976Z,18.20
2018-06-22T08:24:48.071Z,18.60
2018-06-22T08:27:16.405Z,19.10
2018-06-22T08:29:44.526Z,19.50
2018-06-22T08:32:12.659Z,19.80
2018-06-22T08:34:40.817Z,19.70
2018-06-22T08:37:08.962Z,19.60
2018-06-22T08:39:37.130Z,19.40
2018-06-22T08:42:05.456Z,19.80
2018-06-22T08:44:33.548Z,19.60
2018-06-22T08:47:01.673Z,19.00
2018-06-22T08:49:29.939Z,19.00
2018-06-22T08:51:58.097Z,19.30
2018-06-22T08:54:26.297Z,19.80
2018-06-22T08:56:55.516Z,20.30
2018-06-22T08:59:23.626Z,20.50
2018-06-22T09:01:51.756Z,20.50
2018-06-22T09:04:19.882Z,20.70
2018-06-22T09:06:48.038Z,20.90
2018-06-22T09:09:16.145Z,20.90
2018-06-22T09:11:44.310Z,21.30
2018-06-22T09:14:12.474Z,21.50
2018-06-22T09:16:40.597Z,21.70
2018-06-22T09:19:08.898Z,21.80
2018-06-22T09:21:37.034Z,22.00
2018-06-22T09:24:05.168Z,22.20
2018-06-22T09:26:33.273Z,22.10
2018-06-22T09:29:01.386Z,22.50
2018-06-22T09:31:29.549Z,22.50
2018-06-22T09:33:57.697Z,22.70
2018-06-22T09:36:25.843Z,22.60
2018-06-22T09:38:54.038Z,22.90
2018-06-22T09:41:22.240Z,23.40
2018-06-22T09:46:18.238Z,23.40
2018-06-22T09:48:46.547Z,23.20
2018-06-22T09:51:14.669Z,22.70
2018-06-22T09:53:42.757Z,22.70
2018-06-22T09:56:10.857Z,22.60
2018-06-22T09:58:38.970Z,22.10
2018-06-22T10:01:07.230Z,22.00
2018-06-22T10:03:35.338Z,21.50
2018-06-22T10:06:03.459Z,21.20
2018-06-22T10:08:31.573Z,21.10
2018-06-22T10:10:59.697Z,21.50
2018-06-22T10:13:27.821Z,21.10
2018-06-22T10:15:56.050Z,20.70
2018-06-22T10:18:25.747Z,20.70
2018-06-22T10:20:54.007Z,21.10
2018-06-22T10:23:22.513Z,21.90
2018-06-22T10:25:50.645Z,21.90
2018-06-22T10:28:18.777Z,22.20
2018-06-22T10:30:46.907Z,22.30
2018-06-22T10:33:15.033Z,22.30
2018-06-22T10:35:43.158Z,22.30
2018-06-22T10:38:11.294Z,22.40
2018-06-22T10:40:39.413Z,22.50
2018-06-22T10:43:08.030Z,22.80
2018-06-22T10:48:04.130Z,23.80
2018-06-22T10:50:32.318Z,23.30
2018-06-22T10:53:00.478Z,23.00
2018-06-22T10:55:28.998Z,22.80
2018-06-22T10:57:57.123Z,22.80
2018-06-22T11:00:25.298Z,22.90
2018-06-22T11:02:53.457Z,22.90
2018-06-22T11:05:21.583Z,23.50
2018-06-22T11:07:49.711Z,23.50
2018-06-22T11:10:17.845Z,23.70
2018-06-22T11:12:46.002Z,23.90
2018-06-22T11:15:14.178Z,24.10
2018-06-22T11:17:42.310Z,24.40
2018-06-22T11:20:10.448Z,24.50
2018-06-22T11:22:38.621Z,24.50
2018-06-22T11:25:06.767Z,24.50
2018-06-22T11:27:34.874Z,24.80
2018-06-22T11:30:03.027Z,24.50
2018-06-22T11:32:31.214Z,24.40
2018-06-22T11:35:00.542Z,24.50
2018-06-22T11:37:28.811Z,24.70
2018-06-22T11:39:56.958Z,24.90
2018-06-22T11:42:25.734Z,25.00
2018-06-22T11:44:53.887Z,24.90
2018-06-22T11:47:22.288Z,24.40
2018-06-22T11:49:50.438Z,24.10
2018-06-22T11:52:18.578Z,24.10
2018-06-22T11:54:46.786Z,24.00
2018-06-22T11:57:14.973Z,23.90
2018-06-22T11:59:43.140Z,23.70
2018-06-22T12:02:11.252Z,23.60
2018-06-22T12:04:39.423Z,23.90
2018-06-22T12:07:07.537Z,24.10
2018-06-22T12:09:35.644Z,24.30
2018-06-22T12:12:03.774Z,24.00
2018-06-22T12:14:31.976Z,23.30
2018-06-22T12:17:00.198Z,23.20
2018-06-22T12:19:28.356Z,23.90
2018-06-22T12:21:56.502Z,25.10
2018-06-22T12:24:24.646Z,25.90
2018-06-22T12:26:52.829Z,26.30
2018-06-22T12:29:20.991Z,26.80
2018-06-22T12:31:49.150Z,27.10
2018-06-22T12:34:17.327Z,26.50
2018-06-22T12:36:46.665Z,25.80
2018-06-22T12:39:14.801Z,25.10
2018-06-22T12:41:43.878Z,24.50
2018-06-22T12:44:12.047Z,24.20
2018-06-22T12:46:40.188Z,23.70
2018-06-22T12:49:08.358Z,23.50
2018-06-22T12:51:36.651Z,23.00
2018-06-22T12:54:05.424Z,23.20
2018-06-22T12:56:33.537Z,23.50
2018-06-22T12:59:01.646Z,23.60
2018-06-22T13:01:29.770Z,23.40
2018-06-22T13:03:58.142Z,23.30
2018-06-22T13:06:26.292Z,23.30
2018-06-22T13:08:54.406Z,23.00
2018-06-22T13:11:22.654Z,22.90
2018-06-22T13:13:50.820Z,23.20
2018-06-22T13:16:18.948Z,23.10
2018-06-22T13:18:47.090Z,23.00
2018-06-22T13:21:15.316Z,22.70
2018-06-22T13:26:11.330Z,22.00
2018-06-22T13:28:39.498Z,21.50
2018-06-22T13:31:07.614Z,21.60
2018-06-22T13:33:35.746Z,21.90
2018-06-22T13:36:03.890Z,22.50
2018-06-22T13:38:32.267Z,22.80
2018-06-22T13:41:00.429Z,23.00
2018-06-22T13:43:28.530Z,22.90
2018-06-22T13:45:56.646Z,23.40
2018-06-22T13:48:24.803Z,23.70
2018-06-22T13:50:52.917Z,24.80
2018-06-22T13:53:21.046Z,25.30
2018-06-22T13:55:49.291Z,25.70
2018-06-22T13:58:17.432Z,25.30
2018-06-22T14:03:13.582Z,24.90
2018-06-22T14:05:47.275Z,25.30
2018-06-22T14:08:15.586Z,25.00
2018-06-22T14:10:43.758Z,24.30
2018-06-22T14:13:12.952Z,24.20
2018-06-22T14:15:41.097Z,24.40
2018-06-22T14:18:10.521Z,25.00
2018-06-22T14:20:44.662Z,25.20
2018-06-22T14:23:19.642Z,25.20
2018-06-22T14:25:52.732Z,24.80
2018-06-22T14:28:21.334Z,24.80
2018-06-22T14:30:57.184Z,24.50
2018-06-22T14:33:26.321Z,24.00
2018-06-22T14:35:54.518Z,23.50
2018-06-22T14:38:23.058Z,22.90
2018-06-22T14:40:51.553Z,22.40
2018-06-22T14:43:20.520Z,21.90
2018-06-22T14:45:48.634Z,21.50
2018-06-22T14:48:20.553Z,21.50
2018-06-22T14:50:48.715Z,22.10
2018-06-22T14:53:22.265Z,22.60
2018-06-22T14:55:55.935Z,22.50
2018-06-22T15:03:36.476Z,20.90
2018-06-22T15:06:09.950Z,20.50
2018-06-22T15:08:38.086Z,20.20
2018-06-22T15:11:06.361Z,19.90
2018-06-22T15:13:34.761Z,19.80
2018-06-22T15:16:04.978Z,19.60
2018-06-22T15:18:33.118Z,19.40
2018-06-22T15:21:01.330Z,19.30
2018-06-22T15:25:57.410Z,19.20
2018-06-22T15:28:25.613Z,19.30
2018-06-22T15:30:53.731Z,19.30
2018-06-22T15:36:00.812Z,20.50
2018-06-22T15:38:34.262Z,21.20
2018-06-22T15:41:07.758Z,21.50
2018-06-22T15:43:41.094Z,21.40
2018-06-22T15:46:18.138Z,21.20
2018-06-22T15:48:51.511Z,20.80
2018-06-22T15:51:24.883Z,20.40
2018-06-22T15:53:58.499Z,19.90
2018-06-22T15:56:26.909Z,19.70
2018-06-22T15:58:55.090Z,19.70
2018-06-22T16:01:23.204Z,20.20
2018-06-22T16:03:59.060Z,20.30
2018-06-22T16:06:37.375Z,20.30
2018-06-22T16:09:07.326Z,20.20
2018-06-22T16:11:47.723Z,20.10
2018-06-22T16:14:21.204Z,19.90
2018-06-22T16:16:54.705Z,19.70
2018-06-22T16:19:28.385Z,19.60
2018-06-22T16:22:01.973Z,19.40
2018-06-22T16:24:35.529Z,19.30
2018-06-22T16:27:07.449Z,19.20
2018-06-22T16:29:35.711Z,19.10
2018-06-22T16:32:03.826Z,18.90
2018-06-22T16:34:31.970Z,18.90
2018-06-22T16:39:29.118Z,18.70
2018-06-22T16:41:57.241Z,18.80
2018-06-22T16:44:25.416Z,18.80
2018-06-22T16:46:53.606Z,18.70
2018-06-22T16:49:22.890Z,18.80
2018-06-22T16:51:51.056Z,18.90
2018-06-22T16:54:19.326Z,19.00
2018-06-22T16:56:47.465Z,19.10
2018-06-22T16:59:15.576Z,19.00
2018-06-22T17:01:43.836Z,19.00
2018-06-22T17:04:14.958Z,19.20
2018-06-22T17:06:48.634Z,19.40
2018-06-22T17:09:22.145Z,19.50
2018-06-22T17:11:55.614Z,19.60
2018-06-22T17:14:29.332Z,19.60
2018-06-22T17:17:03.025Z,19.40
2018-06-22T17:19:31.301Z,19.40
2018-06-22T17:21:59.517Z,19.40
2018-06-22T17:24:27.696Z,19.40
2018-06-22T17:26:55.839Z,19.40
2018-06-22T17:29:24.169Z,19.40
2018-06-22T17:31:52.310Z,19.40
2018-06-22T17:34:20.484Z,19.40
2018-06-22T17:36:48.774Z,19.20
2018-06-22T17:39:16.965Z,19.10
2018-06-22T17:41:45.079Z,18.90
2018-06-22T17:44:13.207Z,18.80
2018-06-22T17:46:41.341Z,18.70
2018-06-22T17:49:10.639Z,18.60
2018-06-22T17:51:38.839Z,18.40
2018-06-22T17:54:07.058Z,18.20
2018-06-22T17:56:35.303Z,18.10
2018-06-22T17:59:08.795Z,17.90
2018-06-22T18:01:43.209Z,17.70
2018-06-22T18:04:16.949Z,17.50
2018-06-22T18:06:51.704Z,17.40
2018-06-22T18:09:25.470Z,17.30
2018-06-22T18:11:58.886Z,17.30
2018-06-22T18:14:27.087Z,17.20
2018-06-22T18:16:55.266Z,17.20
2018-06-22T18:19:23.441Z,17.20
2018-06-22T18:21:51.751Z,17.20
2018-06-22T18:24:21.922Z,17.00
2018-06-22T18:26:52.146Z,16.90
2018-06-22T18:29:20.371Z,16.80
2018-06-22T18:31:52.146Z,16.70
2018-06-22T18:34:20.381Z,16.60
2018-06-22T18:36:48.506Z,16.50
2018-06-22T18:39:16.736Z,16.50
2018-06-22T18:41:51.234Z,16.50
2018-06-22T18:44:19.374Z,16.40
2018-06-22T18:46:47.551Z,16.40
2018-06-22T18:49:15.752Z,16.30
2018-06-22T18:51:43.879Z,16.20
2018-06-22T18:54:17.585Z,16.20
2018-06-22T18:56:51.314Z,16.10
2018-06-22T18:59:24.858Z,16.00
2018-06-22T19:01:58.369Z,15.90
2018-06-22T19:04:27.223Z,15.80
2018-06-22T19:06:55.367Z,15.70
2018-06-22T19:09:23.506Z,15.60
2018-06-22T19:11:51.718Z,15.50
2018-06-22T19:14:19.873Z,15.40
2018-06-22T19:16:48.114Z,15.30
2018-06-22T19:19:16.306Z,15.30
2018-06-22T19:21:44.457Z,15.20
2018-06-22T19:24:12.647Z,15.20
2018-06-22T19:26:40.827Z,15.10
2018-06-22T19:29:09.110Z,15.00
2018-06-22T19:31:37.268Z,15.00
2018-06-22T19:34:05.619Z,14.90
2018-06-22T19:36:33.790Z,14.90
2018-06-22T19:39:02.301Z,14.90
2018-06-22T19:41:31.150Z,14.90
2018-06-22T19:44:05.906Z,14.80
2018-06-22T19:46:39.542Z,14.80
2018-06-22T19:49:13.113Z,14.70
2018-06-22T19:51:46.522Z,14.60
2018-06-22T19:54:14.659Z,14.50
2018-06-22T19:56:42.875Z,14.50
2018-06-22T19:59:11.050Z,14.50
2018-06-22T20:01:39.178Z,14.40
2018-06-22T20:04:07.929Z,14.40
2018-06-22T20:06:36.106Z,14.30
2018-06-22T20:09:07.246Z,14.30
2018-06-22T20:11:35.475Z,14.30
2018-06-22T20:16:31.574Z,14.20
2018-06-22T20:18:59.817Z,14.20
2018-06-22T20:21:28.054Z,14.20
2018-06-22T20:23:56.405Z,14.10
2018-06-22T20:26:24.649Z,14.00
2018-06-22T20:28:52.830Z,14.00
2018-06-22T20:31:26.402Z,13.90
2018-06-22T20:33:54.754Z,13.90
2018-06-22T20:38:31.843Z,13.80
2018-06-22T20:41:05.578Z,13.80
2018-06-22T20:43:39.266Z,13.60
2018-06-22T20:46:07.432Z,13.50
2018-06-22T20:48:41.177Z,13.30
2018-06-22T20:51:09.437Z,13.20
2018-06-22T20:53:37.612Z,13.10
2018-06-22T20:56:05.796Z,13.00
2018-06-22T21:01:01.898Z,12.70
2018-06-22T21:03:30.142Z,12.60
2018-06-22T21:05:58.439Z,12.50
2018-06-22T21:08:26.614Z,12.50
2018-06-22T21:10:54.831Z,12.40
2018-06-22T21:13:23.106Z,12.30
2018-06-22T21:15:51.264Z,12.20
2018-06-22T21:18:19.428Z,12.10
2018-06-22T21:20:52.924Z,12.10
2018-06-22T21:23:21.148Z,12.00
2018-06-22T21:25:50.511Z,11.90
2018-06-22T21:28:23.983Z,11.80
2018-06-22T21:30:57.357Z,11.70
2018-06-22T21:33:30.989Z,11.50
2018-06-22T21:36:04.654Z,11.40
2018-06-22T21:38:38.301Z,11.20
2018-06-22T21:41:06.510Z,11.00
2018-06-22T21:43:34.725Z,10.90
2018-06-22T21:46:02.902Z,10.80
2018-06-22T21:48:31.058Z,10.70
2018-06-22T21:50:59.236Z,10.80
2018-06-22T21:53:27.420Z,10.80
2018-06-22T21:55:55.562Z,10.80
2018-06-22T21:58:23.704Z,10.70
2018-06-22T22:00:51.903Z,10.70
2018-06-22T22:03:20.155Z,10.70
2018-06-22T22:05:48.374Z,10.60
2018-06-22T22:08:16.560Z,10.60
2018-06-22T22:10:50.054Z,10.50
2018-06-22T22:13:18.218Z,10.50
2018-06-22T22:15:46.354Z,10.40
2018-06-22T22:18:14.566Z,10.50
2018-06-22T22:20:42.818Z,10.50
2018-06-22T22:23:11.065Z,10.60
2018-06-22T22:25:39.222Z,10.70
2018-06-22T22:28:07.358Z,10.80
2018-06-22T22:30:35.477Z,10.90
2018-06-22T22:33:03.590Z,10.90
2018-06-22T22:35:31.733Z,11.00
2018-06-22T22:37:59.852Z,11.00
2018-06-22T22:40:27.999Z,10.90
2018-06-22T22:42:56.126Z,10.90
2018-06-22T22:45:24.278Z,10.70
2018-06-22T22:47:52.412Z,10.60
2018-06-22T22:50:20.538Z,10.50
2018-06-22T22:52:48.662Z,10.40
2018-06-22T22:55:16.778Z,10.30
2018-06-22T22:57:44.909Z,10.20
2018-06-22T23:00:13.034Z,10.20
2018-06-22T23:02:41.182Z,10.10
2018-06-22T23:05:09.322Z,10.00
2018-06-22T23:07:37.454Z,9.90
2018-06-22T23:10:05.799Z,9.80
2018-06-22T23:12:33.926Z,9.70
2018-06-22T23:15:02.042Z,9.70
2018-06-22T23:17:30.175Z,9.70
2018-06-22T23:19:58.377Z,9.70
2018-06-22T23:22:37.698Z,9.70
2018-06-22T23:25:05.967Z,9.60
2018-06-22T23:27:35.179Z,9.50
2018-06-22T23:30:03.577Z,9.40
2018-06-22T23:32:31.832Z,9.40
2018-06-22T23:35:00.001Z,9.30
2018-06-22T23:37:28.146Z,9.30
2018-06-22T23:39:56.422Z,9.20
2018-06-22T23:42:24.590Z,9.10
2018-06-22T23:44:52.806Z,9.00
2018-06-22T23:47:21.079Z,8.90
2018-06-22T23:49:49.193Z,8.90
2018-06-22T23:52:17.336Z,8.80
2018-06-22T23:54:45.478Z,8.70
2018-06-22T23:57:13.594Z,8.70
2018-06-22T23:59:41.701Z,8.60
